createdAt,value
2017-12-10T00:01:21.475Z,1.40
2017-12-10T00:03:49.627Z,1.77
2017-12-10T00:06:17.711Z,1.27
2017-12-10T00:08:45.763Z,1.60
2017-12-10T00:11:13.808Z,1.20
2017-12-10T00:13:42.301Z,1.37
2017-12-10T00:16:10.376Z,1.50
2017-12-10T00:18:38.150Z,1.57
2017-12-10T00:21:06.778Z,1.10
2017-12-10T00:23:34.519Z,1.27
2017-12-10T00:26:02.240Z,0.97
2017-12-10T00:28:29.961Z,1.53
2017-12-10T00:30:57.692Z,1.70
2017-12-10T00:33:25.410Z,2.10
2017-12-10T00:35:53.901Z,1.27
2017-12-10T00:38:22.377Z,1.20
2017-12-10T00:40:51.315Z,1.37
2017-12-10T00:43:19.042Z,1.63
2017-12-10T00:45:47.898Z,1.33
2017-12-10T00:48:15.610Z,1.67
2017-12-10T00:50:43.338Z,2.10
2017-12-10T00:53:12.146Z,1.70
2017-12-10T00:55:39.854Z,1.97
2017-12-10T00:58:07.578Z,1.73
2017-12-10T01:00:35.617Z,2.27
2017-12-10T01:03:04.434Z,1.73
2017-12-10T01:05:32.497Z,1.53
2017-12-10T01:08:00.553Z,1.80
2017-12-10T01:10:29.353Z,1.40
2017-12-10T01:12:57.076Z,1.93
2017-12-10T01:15:24.901Z,2.23
2017-12-10T01:17:52.762Z,1.70
2017-12-10T01:20:20.482Z,2.07
2017-12-10T01:22:48.002Z,1.70
2017-12-10T01:25:15.715Z,2.07
2017-12-10T01:27:44.555Z,1.70
2017-12-10T01:30:12.270Z,1.90
2017-12-10T01:32:41.421Z,1.63
2017-12-10T01:35:09.197Z,2.00
2017-12-10T01:37:37.057Z,1.90
2017-12-10T01:40:04.782Z,2.10
2017-12-10T01:42:32.507Z,2.27
2017-12-10T01:45:01.024Z,2.37
2017-12-10T01:47:28.752Z,1.30
2017-12-10T01:49:57.246Z,1.60
2017-12-10T01:52:25.802Z,2.37
2017-12-10T01:54:53.714Z,1.70
2017-12-10T01:57:21.441Z,2.50
2017-12-10T01:59:49.927Z,2.20
2017-12-10T02:02:19.387Z,2.63
2017-12-10T02:04:47.155Z,1.67
2017-12-10T02:07:14.881Z,2.33
2017-12-10T02:09:42.605Z,1.80
2017-12-10T02:12:10.340Z,1.80
2017-12-10T02:14:38.063Z,1.73
2017-12-10T02:17:05.818Z,1.90
2017-12-10T02:19:33.552Z,1.60
2017-12-10T02:22:01.262Z,1.90
2017-12-10T02:24:28.985Z,2.13
2017-12-10T02:26:57.509Z,1.93
2017-12-10T02:29:25.261Z,1.60
2017-12-10T02:31:52.975Z,1.87
2017-12-10T02:34:21.482Z,1.50
2017-12-10T02:36:49.961Z,1.37
2017-12-10T02:39:18.447Z,1.60
2017-12-10T02:41:46.947Z,1.70
2017-12-10T02:44:14.662Z,2.00
2017-12-10T02:46:42.399Z,1.47
2017-12-10T02:49:10.139Z,1.13
2017-12-10T02:51:37.852Z,1.60
2017-12-10T02:54:05.577Z,1.63
2017-12-10T02:56:33.313Z,1.77
2017-12-10T02:59:01.030Z,1.87
2017-12-10T03:01:28.741Z,1.30
2017-12-10T03:03:56.472Z,1.57
2017-12-10T03:06:24.274Z,1.40
2017-12-10T03:08:51.990Z,1.70
2017-12-10T03:11:19.722Z,1.43
2017-12-10T03:13:47.438Z,1.70
2017-12-10T03:16:15.159Z,1.37
2017-12-10T03:18:45.701Z,0.90
2017-12-10T03:21:13.417Z,1.23
2017-12-10T03:23:41.141Z,1.27
2017-12-10T03:26:09.663Z,1.00
2017-12-10T03:28:37.385Z,1.00
2017-12-10T03:31:05.866Z,1.20
2017-12-10T03:33:34.358Z,1.20
2017-12-10T03:36:02.855Z,1.40
2017-12-10T03:38:30.578Z,1.23
2017-12-10T03:40:58.326Z,1.57
2017-12-10T03:43:26.155Z,0.93
2017-12-10T03:45:53.865Z,1.40
2017-12-10T03:48:21.598Z,1.00
2017-12-10T03:50:49.325Z,0.97
2017-12-10T03:53:17.039Z,1.10
2017-12-10T03:55:44.766Z,1.13
2017-12-10T03:58:12.812Z,1.30
2017-12-10T04:00:41.292Z,1.30
2017-12-10T04:03:10.116Z,1.00
2017-12-10T04:05:37.968Z,1.13
2017-12-10T04:08:05.866Z,1.00
2017-12-10T04:10:33.598Z,1.07
2017-12-10T04:13:01.658Z,1.00
2017-12-10T04:15:29.706Z,1.10
2017-12-10T04:17:58.206Z,0.83
2017-12-10T04:20:25.921Z,0.80
2017-12-10T04:22:53.629Z,1.10
2017-12-10T04:25:21.349Z,1.60
2017-12-10T04:27:50.580Z,1.23
2017-12-10T04:30:19.393Z,0.97
2017-12-10T04:32:47.444Z,1.20
2017-12-10T04:35:15.484Z,1.00
2017-12-10T04:37:43.952Z,1.10
2017-12-10T04:40:11.673Z,1.03
2017-12-10T04:42:39.390Z,0.90
2017-12-10T04:45:07.159Z,0.87
2017-12-10T04:47:35.645Z,1.07
2017-12-10T04:50:04.125Z,1.33
2017-12-10T04:52:32.638Z,0.90
2017-12-10T04:55:00.575Z,1.33
2017-12-10T04:57:29.055Z,0.80
2017-12-10T04:59:57.541Z,0.93
2017-12-10T05:02:26.025Z,0.70
2017-12-10T05:04:53.745Z,1.13
2017-12-10T05:07:21.462Z,1.17
2017-12-10T05:09:49.208Z,1.20
2017-12-10T05:12:17.690Z,1.00
2017-12-10T05:14:46.175Z,0.97
2017-12-10T05:17:13.922Z,0.97
2017-12-10T05:19:42.733Z,1.10
2017-12-10T05:22:10.457Z,0.90
2017-12-10T05:24:38.517Z,0.97
2017-12-10T05:27:06.235Z,1.00
2017-12-10T05:29:33.949Z,1.00
2017-12-10T05:32:01.691Z,1.13
2017-12-10T05:34:29.418Z,0.80
2017-12-10T05:36:57.138Z,1.20
2017-12-10T05:39:25.206Z,1.07
2017-12-10T05:41:52.926Z,1.10
2017-12-10T05:44:20.640Z,1.23
2017-12-10T05:46:49.137Z,1.07
2017-12-10T05:49:17.621Z,1.10
2017-12-10T05:51:46.231Z,0.90
2017-12-10T05:54:13.973Z,0.90
2017-12-10T05:56:41.689Z,1.10
2017-12-10T05:59:09.409Z,0.90
2017-12-10T06:01:37.135Z,0.73
2017-12-10T06:04:05.620Z,1.10
2017-12-10T06:06:34.102Z,0.90
2017-12-10T06:09:02.600Z,1.23
2017-12-10T06:11:30.324Z,1.00
2017-12-10T06:13:58.034Z,1.00
2017-12-10T06:16:25.763Z,0.90
2017-12-10T06:18:53.487Z,0.80
2017-12-10T06:21:21.545Z,0.90
2017-12-10T06:23:49.278Z,1.00
2017-12-10T06:26:17.302Z,0.90
2017-12-10T06:28:45.807Z,0.80
2017-12-10T06:31:14.633Z,1.10
2017-12-10T06:33:42.356Z,0.93
2017-12-10T06:36:11.058Z,0.90
2017-12-10T06:38:39.554Z,1.10
2017-12-10T06:41:07.276Z,0.80
2017-12-10T06:43:35.752Z,0.77
2017-12-10T06:46:03.477Z,1.10
2017-12-10T06:48:31.227Z,0.63
2017-12-10T06:50:58.941Z,0.73
2017-12-10T06:53:26.692Z,0.80
2017-12-10T06:55:55.090Z,0.90
2017-12-10T06:58:22.894Z,0.77
2017-12-10T07:00:50.622Z,1.07
2017-12-10T07:03:19.148Z,0.90
2017-12-10T07:05:46.866Z,0.90
2017-12-10T07:08:15.378Z,0.83
2017-12-10T07:10:43.830Z,0.90
2017-12-10T07:13:11.647Z,1.40
2017-12-10T07:15:39.375Z,0.70
2017-12-10T07:18:07.085Z,0.83
2017-12-10T07:20:34.814Z,0.90
2017-12-10T07:23:02.545Z,0.80
2017-12-10T07:25:31.030Z,0.70
2017-12-10T07:27:59.514Z,1.00
2017-12-10T07:30:28.240Z,0.60
2017-12-10T07:32:55.964Z,0.90
2017-12-10T07:35:24.786Z,1.03
2017-12-10T07:37:52.532Z,0.70
2017-12-10T07:40:20.250Z,0.80
2017-12-10T07:42:48.061Z,0.80
2017-12-10T07:45:15.785Z,0.90
2017-12-10T07:47:43.501Z,1.00
2017-12-10T07:50:11.545Z,1.20
2017-12-10T07:52:39.276Z,1.20
2017-12-10T07:55:07.424Z,1.60
2017-12-10T07:57:35.266Z,0.90
2017-12-10T08:00:03.846Z,1.00
2017-12-10T08:02:31.557Z,0.77
2017-12-10T08:04:59.270Z,0.83
2017-12-10T08:07:27.001Z,0.70
2017-12-10T08:09:55.479Z,1.20
2017-12-10T08:12:24.089Z,1.00
2017-12-10T08:14:51.817Z,1.10
2017-12-10T08:17:20.301Z,0.93
2017-12-10T08:19:48.999Z,0.60
2017-12-10T08:22:16.779Z,0.80
2017-12-10T08:24:44.502Z,0.87
2017-12-10T08:27:13.020Z,0.90
2017-12-10T08:29:40.770Z,1.20
2017-12-10T08:32:08.552Z,0.80
2017-12-10T08:34:36.277Z,1.00
2017-12-10T08:37:04.783Z,1.10
2017-12-10T08:39:32.501Z,1.03
2017-12-10T08:42:00.215Z,0.93
2017-12-10T08:44:27.945Z,1.20
2017-12-10T08:46:56.424Z,0.80
2017-12-10T08:49:25.236Z,1.27
2017-12-10T08:51:52.972Z,1.00
2017-12-10T08:54:21.458Z,0.83
2017-12-10T08:56:49.952Z,0.70
2017-12-10T08:59:17.690Z,0.80
2017-12-10T09:01:46.190Z,1.17
2017-12-10T09:04:14.080Z,0.90
2017-12-10T09:06:42.161Z,1.00
2017-12-10T09:09:09.873Z,0.73
2017-12-10T09:11:38.352Z,0.90
2017-12-10T09:14:06.973Z,0.90
2017-12-10T09:16:34.687Z,0.90
2017-12-10T09:19:02.418Z,1.00
2017-12-10T09:21:30.162Z,0.97
2017-12-10T09:23:57.893Z,1.03
2017-12-10T09:26:25.616Z,1.43
2017-12-10T09:28:53.370Z,1.40
2017-12-10T09:31:21.705Z,1.20
2017-12-10T09:33:49.447Z,0.90
2017-12-10T09:36:17.177Z,1.10
2017-12-10T09:38:44.897Z,1.10
2017-12-10T09:41:12.937Z,0.93
2017-12-10T09:43:40.664Z,1.03
2017-12-10T09:46:08.730Z,1.03
2017-12-10T09:48:36.772Z,1.30
2017-12-10T09:51:04.840Z,1.13
2017-12-10T09:53:32.546Z,1.30
2017-12-10T09:56:00.262Z,1.40
2017-12-10T09:58:28.331Z,1.00
2017-12-10T10:00:56.817Z,1.27
2017-12-10T10:03:24.543Z,1.13
2017-12-10T10:05:52.277Z,1.40
2017-12-10T10:08:20.015Z,1.00
2017-12-10T10:10:47.736Z,0.90
2017-12-10T10:13:15.476Z,1.47
2017-12-10T10:15:43.616Z,1.17
2017-12-10T10:18:11.411Z,1.13
2017-12-10T10:20:39.138Z,0.93
2017-12-10T10:23:06.971Z,1.30
2017-12-10T10:25:35.569Z,0.87
2017-12-10T10:28:04.443Z,1.03
2017-12-10T10:30:33.269Z,1.00
2017-12-10T10:33:01.702Z,0.80
2017-12-10T10:35:30.027Z,1.00
2017-12-10T10:37:58.072Z,0.70
2017-12-10T10:40:26.452Z,0.87
2017-12-10T10:42:54.243Z,0.80
2017-12-10T10:45:21.954Z,1.00
2017-12-10T10:47:49.844Z,0.90
2017-12-10T10:50:17.638Z,1.47
2017-12-10T10:52:45.686Z,1.13
2017-12-10T10:55:13.680Z,0.93
2017-12-10T10:57:41.458Z,1.20
2017-12-10T11:00:09.482Z,1.00
2017-12-10T11:02:37.424Z,0.97
2017-12-10T11:05:05.165Z,0.97
2017-12-10T11:07:34.546Z,1.00
2017-12-10T11:10:02.267Z,0.97
2017-12-10T11:12:31.091Z,1.00
2017-12-10T11:14:58.802Z,0.93
2017-12-10T11:17:26.996Z,1.00
2017-12-10T11:19:54.991Z,1.10
2017-12-10T11:22:23.044Z,1.13
2017-12-10T11:24:51.040Z,1.52
2017-12-10T11:27:19.122Z,1.02
2017-12-10T11:29:47.344Z,0.80
2017-12-10T11:32:15.394Z,1.20
2017-12-10T11:34:43.473Z,1.27
2017-12-10T11:37:11.971Z,0.73
2017-12-10T11:39:39.839Z,1.33
2017-12-10T11:42:07.838Z,0.80
2017-12-10T11:44:35.552Z,0.73
2017-12-10T11:47:03.535Z,0.80
2017-12-10T11:49:32.227Z,1.33
2017-12-10T11:51:59.955Z,1.20
2017-12-10T11:54:28.292Z,1.00
2017-12-10T11:56:56.106Z,1.20
2017-12-10T11:59:24.598Z,1.10
2017-12-10T12:01:53.094Z,1.23
2017-12-10T12:04:21.050Z,1.17
2017-12-10T12:06:49.048Z,1.10
2017-12-10T12:09:16.771Z,1.43
2017-12-10T12:11:44.756Z,1.40
2017-12-10T12:14:13.119Z,1.25
2017-12-10T12:16:41.965Z,1.23
2017-12-10T12:19:09.979Z,1.27
2017-12-10T12:21:37.962Z,1.10
2017-12-10T12:24:05.954Z,1.30
2017-12-10T12:26:34.722Z,1.42
2017-12-10T12:29:02.718Z,1.40
2017-12-10T12:31:30.761Z,1.40
2017-12-10T12:33:59.097Z,1.30
2017-12-10T12:36:26.805Z,1.77
2017-12-10T12:38:55.541Z,1.73
2017-12-10T12:41:23.543Z,1.70
2017-12-10T12:43:51.656Z,1.27
2017-12-10T12:46:19.657Z,1.70
2017-12-10T12:48:47.551Z,1.47
2017-12-10T12:51:15.258Z,1.87
2017-12-10T12:53:43.306Z,1.80
2017-12-10T12:56:12.480Z,1.80
2017-12-10T12:58:40.258Z,1.70
2017-12-10T13:01:07.990Z,1.53
2017-12-10T13:03:36.477Z,1.50
2017-12-10T13:06:04.699Z,1.60
2017-12-10T13:08:32.751Z,1.43
2017-12-10T13:11:01.545Z,1.35
2017-12-10T13:13:29.691Z,1.85
2017-12-10T13:15:57.629Z,1.60
2017-12-10T13:18:25.996Z,1.40
2017-12-10T13:20:54.053Z,1.20
2017-12-10T13:23:22.040Z,1.10
2017-12-10T13:25:50.056Z,1.05
2017-12-10T13:28:18.094Z,1.47
2017-12-10T13:30:47.282Z,1.90
2017-12-10T13:33:15.332Z,1.55
2017-12-10T13:35:43.378Z,1.20
2017-12-10T13:38:11.398Z,1.07
2017-12-10T13:40:39.890Z,1.53
2017-12-10T13:43:09.050Z,1.60
2017-12-10T13:45:36.928Z,1.53
2017-12-10T13:48:05.111Z,1.70
2017-12-10T13:50:33.111Z,1.48
2017-12-10T13:53:01.157Z,1.50
2017-12-10T13:55:30.027Z,1.50
2017-12-10T13:57:58.333Z,1.55
2017-12-10T14:00:26.236Z,1.97
2017-12-10T14:02:54.054Z,1.60
2017-12-10T14:05:22.546Z,1.80
2017-12-10T14:07:50.259Z,2.47
2017-12-10T14:10:17.984Z,1.70
2017-12-10T14:12:46.069Z,2.33
2017-12-10T14:15:14.821Z,2.00
2017-12-10T14:17:43.637Z,2.10
2017-12-10T14:20:12.401Z,1.90
2017-12-10T14:22:40.113Z,2.20
2017-12-10T14:25:08.457Z,2.33
2017-12-10T14:27:36.612Z,2.67
2017-12-10T14:30:04.596Z,2.07
2017-12-10T14:32:33.487Z,2.40
2017-12-10T14:35:01.530Z,2.40
2017-12-10T14:37:29.514Z,2.10
2017-12-10T14:39:57.234Z,2.90
2017-12-10T14:42:25.974Z,2.23
2017-12-10T14:44:53.521Z,2.80
2017-12-10T14:47:21.509Z,2.25
2017-12-10T14:49:49.857Z,1.93
2017-12-10T14:52:17.593Z,2.90
2017-12-10T14:54:45.363Z,2.30
2017-12-10T14:57:13.363Z,2.30
2017-12-10T14:59:41.607Z,2.72
2017-12-10T15:02:09.912Z,2.17
2017-12-10T15:04:38.231Z,2.80
2017-12-10T15:07:06.722Z,2.77
2017-12-10T15:09:34.950Z,2.78
2017-12-10T15:12:04.014Z,3.00
2017-12-10T15:14:32.114Z,3.40
2017-12-10T15:16:59.876Z,2.87
2017-12-10T15:19:29.101Z,2.87
2017-12-10T15:21:57.152Z,3.17
2017-12-10T15:24:24.993Z,2.93
2017-12-10T15:26:53.998Z,3.85
2017-12-10T15:29:21.929Z,4.33
2017-12-10T15:31:49.962Z,4.68
2017-12-10T15:34:17.682Z,3.67
2017-12-10T15:36:46.522Z,4.10
2017-12-10T15:39:14.853Z,4.90
2017-12-10T15:41:42.562Z,5.53
2017-12-10T15:44:10.562Z,5.43
2017-12-10T15:46:39.062Z,5.53
2017-12-10T15:49:07.758Z,5.83
2017-12-10T15:51:35.529Z,5.63
2017-12-10T15:54:03.254Z,4.90
2017-12-10T15:56:31.137Z,6.20
2017-12-10T15:59:00.332Z,6.20
2017-12-10T16:01:28.809Z,6.82
2017-12-10T16:03:56.620Z,5.67
2017-12-10T16:06:25.257Z,5.60
2017-12-10T16:08:53.609Z,5.20
2017-12-10T16:11:22.244Z,5.53
2017-12-10T16:13:49.963Z,5.57
2017-12-10T16:16:17.706Z,6.37
2017-12-10T16:18:45.418Z,5.70
2017-12-10T16:21:13.185Z,5.70
2017-12-10T16:23:41.045Z,5.53
2017-12-10T16:26:08.906Z,6.17
2017-12-10T16:28:36.993Z,5.50
2017-12-10T16:31:05.073Z,5.67
2017-12-10T16:33:34.145Z,4.80
2017-12-10T16:36:02.307Z,4.50
2017-12-10T16:38:31.085Z,4.23
2017-12-10T16:40:59.724Z,4.03
2017-12-10T16:43:27.434Z,3.27
2017-12-10T16:45:55.920Z,3.60
2017-12-10T16:48:24.508Z,3.00
2017-12-10T16:50:52.987Z,2.90
2017-12-10T16:53:22.031Z,2.93
2017-12-10T16:55:50.087Z,2.37
2017-12-10T16:58:18.524Z,1.83
2017-12-10T17:00:46.338Z,1.37
2017-12-10T17:03:14.564Z,1.08
2017-12-10T17:05:43.046Z,0.80
2017-12-10T17:08:11.533Z,1.00
2017-12-10T17:10:41.018Z,0.70
2017-12-10T17:13:09.002Z,0.60
2017-12-10T17:15:37.055Z,0.40
2017-12-10T17:18:04.961Z,0.50
2017-12-10T17:20:32.737Z,0.40
2017-12-10T17:23:01.086Z,0.60
2017-12-10T17:25:29.889Z,0.50
2017-12-10T17:27:58.631Z,0.60
2017-12-10T17:30:26.616Z,0.40
2017-12-10T17:32:54.819Z,0.60
2017-12-10T17:35:23.604Z,0.60
2017-12-10T17:37:51.768Z,0.70
2017-12-10T17:40:20.294Z,0.70
2017-12-10T17:42:48.454Z,0.60
2017-12-10T17:45:16.467Z,1.15
2017-12-10T17:47:44.256Z,0.70
2017-12-10T17:50:12.539Z,0.50
2017-12-10T17:52:41.629Z,0.80
2017-12-10T17:55:09.829Z,0.45
2017-12-10T17:57:39.521Z,0.50
2017-12-10T18:00:07.481Z,0.50
2017-12-10T18:02:35.525Z,0.50
2017-12-10T18:05:04.009Z,0.50
2017-12-10T18:07:32.817Z,0.50
2017-12-10T18:10:00.520Z,0.60
2017-12-10T18:12:28.836Z,0.47
2017-12-10T18:14:56.837Z,0.50
2017-12-10T18:17:25.398Z,0.50
2017-12-10T18:19:53.644Z,0.60
2017-12-10T18:22:21.390Z,0.43
2017-12-10T18:24:49.106Z,0.50
2017-12-10T18:27:16.810Z,0.60
2017-12-10T18:29:44.534Z,0.60
2017-12-10T18:32:12.256Z,0.60
2017-12-10T18:34:41.369Z,0.50
2017-12-10T18:37:09.535Z,0.70
2017-12-10T18:39:37.511Z,0.70
2017-12-10T18:42:05.224Z,0.60
2017-12-10T18:44:33.202Z,0.50
2017-12-10T18:47:01.428Z,0.50
2017-12-10T18:49:29.062Z,1.47
2017-12-10T18:51:56.872Z,0.43
2017-12-10T18:54:24.821Z,0.43
2017-12-10T18:56:52.872Z,0.70
2017-12-10T18:59:21.569Z,0.67
2017-12-10T19:01:49.893Z,0.40
2017-12-10T19:04:17.605Z,0.50
2017-12-10T19:06:45.323Z,0.50
2017-12-10T19:09:13.334Z,0.50
2017-12-10T19:11:41.072Z,0.40
2017-12-10T19:14:10.462Z,0.40
2017-12-10T19:16:38.418Z,0.40
2017-12-10T19:19:06.347Z,0.60
2017-12-10T19:21:34.386Z,0.43
2017-12-10T19:24:02.428Z,0.53
2017-12-10T19:26:30.406Z,0.75
2017-12-10T19:28:58.397Z,0.50
2017-12-10T19:31:27.211Z,0.40
2017-12-10T19:33:55.199Z,0.50
2017-12-10T19:36:22.926Z,0.60
2017-12-10T19:38:50.780Z,0.60
2017-12-10T19:41:18.979Z,0.60
2017-12-10T19:43:47.210Z,0.40
2017-12-10T19:46:15.351Z,0.50
2017-12-10T19:48:43.354Z,0.60
2017-12-10T19:51:11.327Z,0.50
2017-12-10T19:53:39.305Z,0.50
2017-12-10T19:56:08.011Z,0.50
2017-12-10T19:58:36.083Z,0.40
2017-12-10T20:01:04.065Z,0.40
2017-12-10T20:03:31.772Z,0.50
2017-12-10T20:05:59.507Z,0.50
2017-12-10T20:08:27.231Z,0.40
2017-12-10T20:10:55.524Z,0.47
2017-12-10T20:13:23.254Z,0.50
2017-12-10T20:15:52.038Z,0.50
2017-12-10T20:18:20.520Z,0.57
2017-12-10T20:20:49.418Z,0.40
2017-12-10T20:23:17.405Z,0.40
2017-12-10T20:25:45.405Z,0.50
2017-12-10T20:28:13.144Z,0.50
2017-12-10T20:30:41.223Z,0.60
2017-12-10T20:33:09.172Z,0.40
2017-12-10T20:35:37.035Z,0.40
2017-12-10T20:38:04.745Z,0.40
2017-12-10T20:40:32.733Z,0.55
2017-12-10T20:43:02.314Z,0.67
2017-12-10T20:45:31.437Z,0.40
2017-12-10T20:47:59.925Z,0.50
2017-12-10T20:50:28.239Z,0.50
2017-12-10T20:52:56.282Z,0.60
2017-12-10T20:55:24.926Z,0.40
2017-12-10T20:57:53.069Z,0.43
2017-12-10T21:00:21.833Z,0.50
2017-12-10T21:02:49.711Z,0.80
2017-12-10T21:05:17.438Z,0.63
2017-12-10T21:07:45.921Z,0.60
2017-12-10T21:10:14.617Z,0.80
2017-12-10T21:12:42.389Z,0.80
2017-12-10T21:15:10.295Z,0.67
2017-12-10T21:17:38.022Z,0.80
2017-12-10T21:20:06.102Z,0.73
2017-12-10T21:22:34.142Z,0.70
2017-12-10T21:25:01.953Z,1.00
2017-12-10T21:27:30.273Z,0.80
2017-12-10T21:29:58.259Z,0.80
2017-12-10T21:32:25.973Z,1.27
2017-12-10T21:34:54.292Z,1.10
2017-12-10T21:37:22.004Z,1.30
2017-12-10T21:39:50.057Z,0.90
2017-12-10T21:42:18.110Z,0.77
2017-12-10T21:44:45.821Z,0.70
2017-12-10T21:47:13.526Z,1.03
2017-12-10T21:49:41.578Z,0.93
2017-12-10T21:52:10.730Z,0.70
2017-12-10T21:54:38.453Z,0.83
2017-12-10T21:57:06.830Z,0.90
2017-12-10T21:59:34.549Z,1.03
2017-12-10T22:02:02.924Z,0.73
2017-12-10T22:04:30.975Z,0.83
2017-12-10T22:06:59.354Z,0.80
2017-12-10T22:09:27.403Z,0.70
2017-12-10T22:11:55.581Z,1.20
2017-12-10T22:14:23.318Z,1.03
2017-12-10T22:16:52.612Z,0.90
2017-12-10T22:19:21.429Z,0.90
2017-12-10T22:21:49.138Z,1.00
2017-12-10T22:24:17.182Z,0.70
2017-12-10T22:26:44.930Z,0.70
2017-12-10T22:29:12.653Z,1.20
2017-12-10T22:31:41.153Z,1.13
2017-12-10T22:34:09.213Z,0.83
2017-12-10T22:36:37.687Z,1.00
2017-12-10T22:39:06.509Z,0.93
2017-12-10T22:41:34.239Z,1.30
2017-12-10T22:44:03.385Z,0.67
2017-12-10T22:46:31.773Z,0.90
2017-12-10T22:48:59.830Z,0.80
2017-12-10T22:51:28.202Z,0.50
2017-12-10T22:53:56.570Z,0.60
2017-12-10T22:56:26.575Z,0.60
2017-12-10T22:58:54.950Z,0.70
2017-12-10T23:01:23.334Z,0.80
2017-12-10T23:03:51.722Z,0.70
2017-12-10T23:06:20.094Z,0.90
2017-12-10T23:08:48.486Z,1.13
2017-12-10T23:11:16.910Z,1.00
2017-12-10T23:13:50.972Z,1.30
2017-12-10T23:16:31.744Z,0.80
2017-12-10T23:19:00.123Z,1.00
2017-12-10T23:21:28.497Z,1.00
2017-12-10T23:23:56.897Z,1.07
2017-12-10T23:26:24.613Z,1.17
2017-12-10T23:28:52.998Z,1.10
2017-12-10T23:31:20.735Z,1.07
2017-12-10T23:33:49.223Z,1.20
2017-12-10T23:36:17.319Z,0.90
2017-12-10T23:38:45.456Z,0.93
2017-12-10T23:41:14.605Z,1.20
2017-12-10T23:43:42.653Z,0.83
2017-12-10T23:46:10.742Z,1.40
2017-12-10T23:48:39.123Z,1.13
2017-12-10T23:51:07.176Z,1.50
2017-12-10T23:53:35.588Z,1.30
2017-12-10T23:56:03.963Z,0.90
2017-12-10T23:58:32.351Z,1.30
